createdAt,value
2022-09-05T00:01:48.969Z,2266.67
2022-09-05T00:04:26.546Z,1909.67
2022-09-05T00:07:03.316Z,1993.63
2022-09-05T00:09:56.192Z,1798.93
2022-09-05T00:12:25.641Z,2266.67
2022-09-05T00:15:17.610Z,2266.67
2022-09-05T00:22:09.471Z,1683.83
2022-09-05T00:24:30.624Z,1725.80
2022-09-05T00:24:35.811Z,2266.67
2022-09-05T00:27:07.396Z,1761.63
2022-09-05T00:31:07.527Z,983.07
2022-09-05T00:33:17.217Z,1930.40
2022-09-05T00:36:02.505Z,1913.93
2022-09-05T00:38:34.818Z,1039.77
2022-09-05T00:41:08.158Z,1545.93
2022-09-05T00:43:39.915Z,1836.37
2022-09-05T00:46:14.654Z,1828.70
2022-09-05T00:48:50.575Z,1948.20
2022-09-05T00:51:29.307Z,1197.33
2022-09-05T00:54:24.826Z,1271.57
2022-09-05T00:57:23.949Z,2005.60
2022-09-05T01:00:06.273Z,841.50
2022-09-05T01:03:02.785Z,1788.40
2022-09-05T01:05:48.263Z,2266.67
2022-09-05T01:08:42.074Z,2266.67
2022-09-05T01:11:18.481Z,2266.67
2022-09-05T01:13:55.421Z,2266.67
2022-09-05T01:16:29.657Z,2266.67
2022-09-05T01:19:15.961Z,2266.67
2022-09-05T01:22:09.395Z,1742.30
2022-09-05T01:24:51.179Z,1697.63
2022-09-05T01:29:13.955Z,2266.67
2022-09-05T01:30:41.675Z,2266.67
2022-09-05T01:33:24.834Z,1954.47
2022-09-05T01:36:11.751Z,1986.13
2022-09-05T01:39:32.551Z,1386.60
2022-09-05T01:41:55.261Z,803.77
2022-09-05T01:44:38.406Z,1973.57
2022-09-05T01:47:30.963Z,1819.80
2022-09-05T01:50:10.755Z,1873.37
2022-09-05T01:53:03.261Z,1639.90
2022-09-05T01:56:04.755Z,1792.07
2022-09-05T01:58:47.990Z,1734.00
2022-09-05T02:01:32.266Z,1893.20
2022-09-05T02:04:27.995Z,938.67
2022-09-05T02:07:30.395Z,1177.67
2022-09-05T02:10:08.755Z,847.60
2022-09-05T02:13:01.899Z,1252.23
2022-09-05T02:15:41.591Z,1269.60
2022-09-05T02:18:19.294Z,1467.00
2022-09-05T02:20:53.694Z,1433.17
2022-09-05T02:23:41.898Z,1452.20
2022-09-05T02:26:17.269Z,2037.17
2022-09-05T02:28:52.350Z,1058.97
2022-09-05T02:31:25.889Z,1983.00
2022-09-05T02:34:02.240Z,1925.43
2022-09-05T02:36:39.317Z,798.23
2022-09-05T02:43:12.834Z,802.83
2022-09-05T02:45:18.725Z,1996.17
2022-09-05T02:45:30.688Z,1571.57
2022-09-05T02:48:15.998Z,1601.77
2022-09-05T02:57:24.947Z,1703.80
2022-09-05T02:57:34.885Z,1660.73
2022-09-05T02:57:44.407Z,1721.27
2022-09-05T03:00:02.208Z,1652.83
2022-09-05T03:02:37.604Z,1143.60
2022-09-05T03:05:15.495Z,1229.07
2022-09-05T03:08:09.080Z,1521.87
2022-09-05T03:11:14.995Z,1263.90
2022-09-05T03:14:12.008Z,1192.70
2022-09-05T03:17:28.554Z,1476.60
2022-09-05T03:20:44.486Z,966.03
2022-09-05T03:23:33.176Z,1811.83
2022-09-05T03:26:37.276Z,1941.87
2022-09-05T03:29:41.647Z,1894.70
2022-09-05T03:32:50.621Z,829.03
2022-09-05T03:35:50.476Z,1964.13
2022-09-05T03:39:10.553Z,1267.93
2022-09-05T03:41:55.374Z,1769.27
2022-09-05T03:44:39.592Z,2266.67
2022-09-05T03:47:38.695Z,2266.67
2022-09-05T03:53:29.398Z,2266.67
2022-09-05T03:57:17.334Z,2266.67
2022-09-05T03:57:26.007Z,2266.67
2022-09-05T03:59:54.751Z,2266.67
2022-09-05T04:04:00.343Z,2266.67
2022-09-05T04:08:17.422Z,2266.67
2022-09-05T04:08:33.979Z,1696.03
2022-09-05T04:11:07.310Z,1856.70
2022-09-05T04:13:40.583Z,1982.77
2022-09-05T04:16:14.962Z,2036.40
2022-09-05T04:18:47.268Z,1394.57
2022-09-05T04:21:21.335Z,1705.27
2022-09-05T04:24:07.237Z,1777.53
2022-09-05T04:27:01.713Z,1440.73
2022-09-05T04:29:43.823Z,1343.70
2022-09-05T04:32:24.665Z,1422.47
2022-09-05T04:35:07.748Z,1304.40
2022-09-05T04:37:48.899Z,1492.20
2022-09-05T04:40:49.416Z,1531.97
2022-09-05T04:43:28.982Z,1549.13
2022-09-05T04:46:18.770Z,1077.00
2022-09-05T04:48:54.581Z,2266.67
2022-09-05T04:52:00.237Z,2266.67
2022-09-05T04:54:38.468Z,2266.67
2022-09-05T04:57:20.711Z,2266.67
2022-09-05T05:05:58.590Z,2266.67
2022-09-05T05:06:13.494Z,2266.67
2022-09-05T05:06:17.107Z,2266.67
2022-09-05T05:08:47.669Z,2266.67
2022-09-05T05:17:55.284Z,2266.67
2022-09-05T05:18:08.144Z,2266.67
2022-09-05T05:18:15.156Z,2266.67
2022-09-05T05:20:41.600Z,2266.67
2022-09-05T05:23:06.536Z,1711.50
2022-09-05T05:25:50.439Z,1921.90
2022-09-05T05:28:27.890Z,1983.60
2022-09-05T05:31:01.632Z,1645.03
2022-09-05T05:33:34.676Z,1743.80
2022-09-05T05:36:07.565Z,1606.97
2022-09-05T05:38:44.365Z,1697.33
2022-09-05T05:41:20.888Z,1728.23
2022-09-05T05:43:50.614Z,1788.60
2022-09-05T05:46:29.499Z,1793.53
2022-09-05T05:49:14.538Z,1457.93
2022-09-05T05:52:02.648Z,1720.80
2022-09-05T05:54:39.834Z,1467.57
2022-09-05T05:57:25.572Z,1683.87
2022-09-05T06:00:02.173Z,1602.57
2022-09-05T06:03:26.373Z,1485.43
2022-09-05T06:06:16.609Z,1621.20
2022-09-05T06:14:37.485Z,1345.53
2022-09-05T06:15:05.802Z,1551.60
2022-09-05T06:16:17.706Z,1519.70
2022-09-05T06:19:17.714Z,1438.50
2022-09-05T06:22:25.734Z,1445.00
2022-09-05T06:25:42.500Z,1655.67
2022-09-05T06:28:21.067Z,1767.63
2022-09-05T06:31:29.838Z,1796.70
2022-09-05T06:33:59.956Z,2036.17
2022-09-05T06:36:48.908Z,1904.93
2022-09-05T06:39:26.492Z,2266.67
2022-09-05T06:42:30.715Z,2266.67
2022-09-05T06:45:32.610Z,2181.47
2022-09-05T06:48:10.305Z,2266.67
2022-09-05T06:51:09.446Z,1992.57
2022-09-05T06:54:16.092Z,2266.67
2022-09-05T06:57:11.497Z,2266.67
2022-09-05T07:00:24.157Z,2266.67
2022-09-05T07:03:13.527Z,2266.67
2022-09-05T07:05:45.800Z,2266.67
2022-09-05T07:08:35.069Z,2266.67
2022-09-05T07:11:17.734Z,2266.67
2022-09-05T07:13:58.489Z,2266.67
2022-09-05T07:16:39.281Z,2266.67
2022-09-05T07:19:29.482Z,2266.67
2022-09-05T07:22:18.462Z,2266.67
2022-09-05T07:25:09.677Z,2266.67
2022-09-05T07:28:27.054Z,2266.67
2022-09-05T07:30:33.948Z,2266.67
2022-09-05T07:33:04.564Z,2266.67
2022-09-05T07:35:41.914Z,2266.67
2022-09-05T07:38:16.639Z,2266.67
2022-09-05T07:40:52.795Z,2266.67
2022-09-05T07:43:24.274Z,2266.67
2022-09-05T07:46:06.430Z,2266.67
2022-09-05T07:48:38.549Z,2266.67
2022-09-05T07:54:30.026Z,2266.67
2022-09-05T07:56:54.388Z,2266.67
2022-09-05T07:59:53.595Z,2266.67
2022-09-05T08:02:22.003Z,2266.67
2022-09-05T08:04:50.275Z,2266.67
2022-09-05T08:07:49.412Z,2266.67
2022-09-05T08:10:15.695Z,2266.67
2022-09-05T08:13:23.910Z,2266.67
2022-09-05T08:16:11.015Z,2266.67
2022-09-05T08:18:37.652Z,2266.67
2022-09-05T08:21:13.997Z,2266.67
2022-09-05T08:23:53.489Z,2266.67
2022-09-05T08:26:32.361Z,2266.67
2022-09-05T08:29:09.472Z,2266.67
2022-09-05T08:31:41.793Z,2266.67
2022-09-05T08:34:18.518Z,2266.67
2022-09-05T08:36:56.101Z,2266.67
2022-09-05T08:39:29.394Z,2266.67
2022-09-05T08:42:09.565Z,2266.67
2022-09-05T08:46:42.698Z,2266.67
2022-09-05T08:47:45.598Z,2266.67
2022-09-05T08:50:37.365Z,2266.67
2022-09-05T08:53:38.270Z,2266.67
2022-09-05T08:56:20.710Z,2266.67
2022-09-05T08:59:32.128Z,2266.67
2022-09-05T09:02:46.864Z,2266.67
2022-09-05T09:05:14.826Z,2266.67
2022-09-05T09:07:51.352Z,2266.67
2022-09-05T09:10:31.315Z,2266.67
2022-09-05T09:13:13.909Z,2266.67
2022-09-05T09:15:50.071Z,2266.67
2022-09-05T09:18:20.314Z,2266.67
2022-09-05T09:20:52.813Z,2266.67
2022-09-05T09:23:42.083Z,2266.67
2022-09-05T09:26:15.765Z,2266.67
2022-09-05T09:28:51.843Z,2266.67
2022-09-05T09:31:33.649Z,2266.67
2022-09-05T09:34:19.502Z,2266.67
2022-09-05T09:37:50.819Z,2266.67
2022-09-05T09:41:00.931Z,2266.67
2022-09-05T09:43:53.951Z,2266.67
2022-09-05T09:46:34.056Z,2266.67
2022-09-05T09:49:23.364Z,2266.67
2022-09-05T09:52:22.014Z,2266.67
2022-09-05T09:55:39.080Z,2266.67
2022-09-05T09:58:44.781Z,2266.67
2022-09-05T10:01:36.483Z,2266.67
2022-09-05T10:10:34.238Z,2266.67
2022-09-05T10:10:44.579Z,2266.67
2022-09-05T10:11:51.485Z,2266.67
2022-09-05T10:14:49.948Z,2266.67
2022-09-05T10:17:43.985Z,2266.67
2022-09-05T10:20:38.071Z,2266.67
2022-09-05T10:23:26.969Z,2266.67
2022-09-05T10:26:37.482Z,2266.67
2022-09-05T10:29:35.028Z,2266.67
2022-09-05T10:35:17.847Z,2266.67
2022-09-05T10:35:19.675Z,2266.67
2022-09-05T10:37:56.049Z,2266.67
2022-09-05T10:40:26.465Z,2266.67
2022-09-05T10:43:01.201Z,2266.67
2022-09-05T10:45:39.936Z,2266.67
2022-09-05T10:48:17.507Z,2266.67
2022-09-05T10:50:53.636Z,2266.67
2022-09-05T10:53:39.791Z,2266.67
2022-09-05T10:56:14.360Z,2266.67
2022-09-05T11:00:58.077Z,2266.67
2022-09-05T11:02:27.827Z,2266.67
2022-09-05T11:04:52.864Z,2266.67
2022-09-05T11:07:36.907Z,2266.67
2022-09-05T11:10:11.783Z,2266.67
2022-09-05T11:13:05.663Z,2266.67
2022-09-05T11:15:51.199Z,2266.67
2022-09-05T11:18:55.129Z,2266.67
2022-09-05T11:21:31.934Z,2266.67
2022-09-05T11:24:17.440Z,2266.67
2022-09-05T11:26:49.754Z,2266.67
2022-09-05T11:29:42.313Z,2266.67
2022-09-05T11:36:06.835Z,2266.67
2022-09-05T11:40:00.458Z,2266.67
2022-09-05T11:40:24.659Z,2266.67
2022-09-05T11:42:01.625Z,2266.67
2022-09-05T11:44:35.716Z,2266.67
2022-09-05T11:47:37.095Z,2266.67
2022-09-05T11:50:28.569Z,2266.67
2022-09-05T11:53:43.050Z,2266.67
2022-09-05T11:56:50.534Z,2266.67
2022-09-05T12:00:17.194Z,2266.67
2022-09-05T12:03:53.542Z,2266.67
2022-09-05T12:06:34.509Z,2266.67
2022-09-05T12:09:20.370Z,2266.67
2022-09-05T12:12:30.049Z,2266.67
2022-09-05T12:15:07.257Z,2266.67
2022-09-05T12:17:48.691Z,2266.67
2022-09-05T12:20:27.661Z,2266.67
2022-09-05T12:23:02.235Z,2266.67
2022-09-05T12:27:39.633Z,2266.67
2022-09-05T12:29:27.371Z,2266.67
2022-09-05T12:32:36.563Z,2266.67
2022-09-05T12:36:12.660Z,2266.67
2022-09-05T12:40:55.039Z,2266.67
2022-09-05T12:41:35.078Z,2266.67
2022-09-05T12:44:36.366Z,2266.67
2022-09-05T12:46:26.169Z,2266.67
2022-09-05T12:49:01.461Z,2266.67
2022-09-05T12:51:46.827Z,2266.67
2022-09-05T12:54:33.443Z,2266.67
2022-09-05T13:01:25.765Z,2266.67
2022-09-05T13:02:56.721Z,2266.67
2022-09-05T13:03:11.484Z,2266.67
2022-09-05T13:05:52.653Z,2266.67
2022-09-05T13:08:23.439Z,2266.67
2022-09-05T13:14:49.687Z,2266.67
2022-09-05T13:14:57.663Z,2266.67
2022-09-05T13:16:41.678Z,2266.67
2022-09-05T13:19:26.209Z,2266.67
2022-09-05T13:21:57.499Z,2266.67
2022-09-05T13:24:30.726Z,2266.67
2022-09-05T13:27:09.424Z,2266.67
2022-09-05T13:30:23.868Z,2266.67
2022-09-05T13:38:01.125Z,2266.67
2022-09-05T13:38:10.025Z,2266.67
2022-09-05T13:38:48.233Z,2266.67
2022-09-05T13:41:27.692Z,2266.67
2022-09-05T13:44:24.793Z,2266.67
2022-09-05T13:46:58.894Z,2266.67
2022-09-05T13:49:33.162Z,2266.67
2022-09-05T13:52:22.016Z,2266.67
2022-09-05T13:55:01.188Z,2266.67
2022-09-05T13:57:37.078Z,2266.67
2022-09-05T14:00:38.960Z,2266.67
2022-09-05T14:03:47.125Z,2266.67
2022-09-05T14:10:06.521Z,2266.67
2022-09-05T14:12:39.721Z,2266.67
2022-09-05T14:15:25.268Z,2266.67
2022-09-05T14:18:00.452Z,2266.67
2022-09-05T14:20:50.317Z,2266.67
2022-09-05T14:23:22.051Z,2266.67
2022-09-05T14:25:57.071Z,2266.67
2022-09-05T14:28:33.053Z,2266.67
2022-09-05T14:35:15.039Z,2266.67
2022-09-05T14:37:45.204Z,2266.67
2022-09-05T14:37:49.288Z,2266.67
2022-09-05T14:40:30.242Z,2266.67
2022-09-05T14:43:30.755Z,2266.67
2022-09-05T14:46:28.099Z,2266.67
2022-09-05T14:49:20.095Z,2266.67
2022-09-05T14:51:49.507Z,2266.67
2022-09-05T15:00:12.140Z,2266.67
2022-09-05T15:03:00.134Z,2266.67
2022-09-05T15:03:05.329Z,2266.67
2022-09-05T15:05:44.662Z,2266.67
2022-09-05T15:10:52.514Z,2266.67
2022-09-05T15:12:23.540Z,2266.67
2022-09-05T15:14:02.399Z,2266.67
2022-09-05T15:16:35.427Z,2266.67
2022-09-05T15:19:03.766Z,2266.67
2022-09-05T15:21:36.496Z,2266.67
2022-09-05T15:24:17.137Z,2266.67
2022-09-05T15:26:51.974Z,2266.67
2022-09-05T15:29:23.392Z,2266.67
2022-09-05T15:32:09.401Z,2266.67
2022-09-05T15:34:39.927Z,2266.67
2022-09-05T15:37:28.677Z,2266.67
2022-09-05T15:40:22.679Z,2266.67
2022-09-05T15:42:55.666Z,2266.67
2022-09-05T15:45:27.942Z,2266.67
2022-09-05T15:48:18.328Z,2266.67
2022-09-05T15:50:51.127Z,2266.67
2022-09-05T15:53:25.308Z,2266.67
2022-09-05T15:55:59.890Z,2266.67
2022-09-05T15:58:52.285Z,2266.67
2022-09-05T16:01:30.304Z,2266.67
2022-09-05T16:08:15.355Z,2266.67
2022-09-05T16:10:46.541Z,2266.67
2022-09-05T16:10:50.977Z,2266.67
2022-09-05T16:12:45.542Z,2266.67
2022-09-05T16:18:47.647Z,2266.67
2022-09-05T16:23:16.666Z,2266.67
2022-09-05T16:23:26.195Z,2266.67
2022-09-05T16:24:02.484Z,2266.67
2022-09-05T16:26:35.043Z,2266.67
2022-09-05T16:29:11.377Z,2266.67
2022-09-05T16:31:46.455Z,2266.67
2022-09-05T16:34:22.610Z,2266.67
2022-09-05T16:37:08.903Z,2266.67
2022-09-05T16:39:41.192Z,2266.67
2022-09-05T16:42:18.615Z,2266.67
2022-09-05T16:44:52.441Z,2266.67
2022-09-05T16:47:25.541Z,2266.67
2022-09-05T16:50:01.263Z,2266.67
2022-09-05T16:52:39.846Z,2266.67
2022-09-05T16:55:33.319Z,2266.67
2022-09-05T16:58:14.367Z,2266.67
2022-09-05T17:00:55.808Z,2266.67
2022-09-05T17:03:34.626Z,2266.67
2022-09-05T17:06:25.511Z,2266.67
2022-09-05T17:09:13.556Z,2266.67
2022-09-05T17:12:00.139Z,2266.67
2022-09-05T17:14:35.015Z,2266.67
2022-09-05T17:17:20.383Z,2266.67
2022-09-05T17:20:06.229Z,2266.67
2022-09-05T17:24:58.117Z,2266.67
2022-09-05T17:29:16.098Z,2266.67
2022-09-05T17:29:26.023Z,2266.67
2022-09-05T17:34:42.343Z,2266.67
2022-09-05T17:37:25.246Z,2266.67
2022-09-05T17:40:00.527Z,2266.67
2022-09-05T17:42:46.259Z,2266.67
2022-09-05T17:45:21.678Z,2266.67
2022-09-05T17:47:52.438Z,2266.67
2022-09-05T17:50:41.815Z,2266.67
2022-09-05T17:53:26.269Z,2266.67
2022-09-05T17:56:32.885Z,2266.67
2022-09-05T17:59:08.195Z,2266.67
2022-09-05T18:01:36.720Z,2266.67
2022-09-05T18:04:17.588Z,2266.67
2022-09-05T18:07:00.736Z,2266.67
2022-09-05T18:10:12.324Z,2266.67
2022-09-05T18:13:31.084Z,2266.67
2022-09-05T18:16:04.731Z,2266.67
2022-09-05T18:19:28.718Z,2266.67
2022-09-05T18:21:26.198Z,2266.67
2022-09-05T18:24:03.358Z,2266.67
2022-09-05T18:26:39.389Z,2266.67
2022-09-05T18:29:16.515Z,2266.67
2022-09-05T18:32:02.806Z,2266.67
2022-09-05T18:34:44.596Z,2266.67
2022-09-05T18:38:00.113Z,2266.67
2022-09-05T18:40:52.903Z,2266.67
2022-09-05T18:43:42.496Z,2266.67
2022-09-05T18:46:29.224Z,2266.67
2022-09-05T18:50:22.001Z,2266.67
2022-09-05T18:51:54.791Z,2266.67
2022-09-05T18:54:26.144Z,2266.67
2022-09-05T18:57:28.625Z,2266.67
2022-09-05T18:59:51.914Z,2266.67
2022-09-05T19:02:34.900Z,2266.67
2022-09-05T19:05:17.966Z,2266.67
2022-09-05T19:07:50.730Z,2266.67
2022-09-05T19:10:36.075Z,2266.67
2022-09-05T19:13:12.247Z,2266.67
2022-09-05T19:15:48.403Z,2266.67
2022-09-05T19:18:26.854Z,2266.67
2022-09-05T19:21:11.910Z,2266.67
2022-09-05T19:23:47.787Z,2266.67
2022-09-05T19:26:15.874Z,2266.67
2022-09-05T19:34:56.302Z,2266.67
2022-09-05T19:36:53.901Z,2266.67
2022-09-05T19:37:15.380Z,2266.67
2022-09-05T19:37:30.415Z,2266.67
2022-09-05T19:43:28.361Z,2266.67
2022-09-05T19:47:33.798Z,2266.67
2022-09-05T19:47:41.669Z,2266.67
2022-09-05T19:48:35.600Z,2266.67
2022-09-05T19:51:17.369Z,2266.67
2022-09-05T19:53:53.444Z,2266.67
2022-09-05T19:56:36.833Z,2266.67
2022-09-05T19:59:16.734Z,2266.67
2022-09-05T20:01:46.229Z,2266.67
2022-09-05T20:04:18.612Z,2266.67
2022-09-05T20:06:49.183Z,2266.67
2022-09-05T20:09:18.956Z,2266.67
2022-09-05T20:11:53.407Z,2266.67
2022-09-05T20:14:26.810Z,2266.67
2022-09-05T20:16:58.047Z,1859.53
2022-09-05T20:19:31.115Z,1855.57
2022-09-05T20:22:10.130Z,2266.67
2022-09-05T20:24:56.365Z,2266.67
2022-09-05T20:27:30.341Z,2266.67
2022-09-05T20:30:01.709Z,2266.67
2022-09-05T20:32:40.450Z,2266.67
2022-09-05T20:39:03.950Z,2266.67
2022-09-05T20:43:21.591Z,2266.67
2022-09-05T20:43:23.028Z,2266.67
2022-09-05T20:44:01.414Z,2266.67
2022-09-05T20:53:11.101Z,2266.67
2022-09-05T20:54:15.601Z,2266.67
2022-09-05T20:59:20.188Z,2266.67
2022-09-05T21:02:04.280Z,2266.67
2022-09-05T21:04:43.386Z,2266.67
2022-09-05T21:07:26.273Z,2266.67
2022-09-05T21:10:02.767Z,2266.67
2022-09-05T21:12:43.907Z,2266.67
2022-09-05T21:15:53.884Z,2266.67
2022-09-05T21:18:34.181Z,2266.67
2022-09-05T21:21:28.581Z,2266.67
2022-09-05T21:27:29.156Z,2266.67
2022-09-05T21:32:53.667Z,2266.67
2022-09-05T21:35:34.230Z,2266.67
2022-09-05T21:38:32.104Z,1721.83
2022-09-05T21:41:16.211Z,2266.67
2022-09-05T21:47:34.773Z,2266.67
2022-09-05T21:47:55.983Z,1577.23
2022-09-05T21:50:30.799Z,2266.67
2022-09-05T21:59:22.148Z,2266.67
2022-09-05T21:59:29.609Z,1718.13
2022-09-05T21:59:37.000Z,1734.97
2022-09-05T22:02:14.402Z,2266.67
2022-09-05T22:05:03.088Z,2266.67
2022-09-05T22:07:56.155Z,2266.67
2022-09-05T22:10:52.549Z,2266.67
2022-09-05T22:13:35.504Z,2266.67
2022-09-05T22:16:45.226Z,2266.67
2022-09-05T22:19:24.860Z,2266.67
2022-09-05T22:22:21.468Z,2266.67
2022-09-05T22:25:07.468Z,2266.67
2022-09-05T22:27:39.337Z,2266.67
2022-09-05T22:30:21.067Z,2266.67
2022-09-05T22:32:55.973Z,2266.67
2022-09-05T22:35:31.859Z,1904.10
2022-09-05T22:38:14.184Z,1932.57
2022-09-05T22:41:00.070Z,1912.27
2022-09-05T22:43:37.919Z,1149.00
2022-09-05T22:46:13.511Z,1999.13
2022-09-05T22:48:43.685Z,2084.13
2022-09-05T22:51:23.733Z,1420.60
2022-09-05T22:54:16.867Z,1467.83
2022-09-05T22:56:54.025Z,1085.27
2022-09-05T22:59:39.175Z,1242.93
2022-09-05T23:02:10.271Z,1887.10
2022-09-05T23:04:47.639Z,1670.27
2022-09-05T23:07:32.427Z,1793.43
2022-09-05T23:10:03.648Z,2266.67
2022-09-05T23:12:47.006Z,2266.67
2022-09-05T23:15:24.890Z,2266.67
2022-09-05T23:18:04.793Z,2266.67
2022-09-05T23:23:44.352Z,2266.67
2022-09-05T23:26:16.399Z,2266.67
2022-09-05T23:28:55.250Z,1689.73
2022-09-05T23:31:26.186Z,1738.83
2022-09-05T23:34:03.822Z,819.00
2022-09-05T23:36:43.777Z,2009.63
2022-09-05T23:39:15.485Z,1274.00
2022-09-05T23:41:56.740Z,1586.23
2022-09-05T23:44:35.772Z,2031.10
2022-09-05T23:47:11.398Z,1976.37
2022-09-05T23:49:42.599Z,1864.00
2022-09-05T23:52:17.269Z,1350.30
2022-09-05T23:55:04.058Z,2266.67
2022-09-05T23:57:37.500Z,2266.67
